Time,TemperatureF,DewpointF,PressureIn,WindDirection,WindDirectionDegrees,WindSpeedMPH,WindSpeedGustMPH,Humidity,HourlyPrecipIn,Conditions,Clouds,dailyrainin,SolarRadiationWatts/m^2,SoftwareType,DateUTC
2013-05-04 00:00:00,55.9,53.3,30.01,East,85,5.8,7.9,91,0.00,CLR,,0.16,0.0,WeatherDisplay:10.37,2013-05-04 04:00:00,
2013-05-04 00:01:00,55.9,53.3,30.01,SE,136,13.8,13.8,91,0.00,RA,,0.00,0.0,WeatherDisplay:10.37,2013-05-04 04:01:00,
2013-05-04 00:06:00,55.9,53.3,30.01,NNE,26,13.8,13.8,91,0.00,RA,,0.00,0.0,WeatherDisplay:10.37,2013-05-04 04:06:00,
2013-05-04 00:11:00,55.9,53.3,30.01,ENE,78,19.6,19.6,91,0.00,CLR,,0.00,0.0,WeatherDisplay:10.37,2013-05-04 04:11:00,
2013-05-04 00:16:00,55.9,53.3,30.00,ENE,78,16.1,16.1,91,0.00,CLR,,0.00,0.0,WeatherDisplay:10.37,2013-05-04 04:16:00,
2013-05-04 00:21:00,56.0,53.4,30.00,East,94,12.7,12.7,91,0.00,CLR,,0.00,0.0,WeatherDisplay:10.37,2013-05-04 04:21:00,
2013-05-04 00:26:00,56.0,53.4,30.00,ESE,113,16.1,16.1,91,0.00,CLR,,0.00,0.0,WeatherDisplay:10.37,2013-05-04 04:26:00,
2013-05-04 00:31:00,55.9,53.3,29.99,ESE,119,18.4,18.4,91,0.00,CLR,,0.00,0.0,WeatherDisplay:10.37,2013-05-04 04:31:00,
2013-05-04 00:36:00,55.9,53.3,30.00,East,89,14.0,14.0,91,0.00,CLR,,0.00,0.0,WeatherDisplay:10.37,2013-05-04 04:36:00,
2013-05-04 00:41:00,55.9,53.3,30.00,East,90,15.0,15.0,91,0.00,CLR,,0.00,0.0,WeatherDisplay:10.37,2013-05-04 04:41:00,
2013-05-04 00:46:00,55.9,53.3,29.99,East,79,29.9,29.9,91,0.00,CLR,,0.00,0.0,WeatherDisplay:10.37,2013-05-04 04:46:00,
2013-05-04 00:51:00,56.0,53.4,30.00,East,81,16.1,16.1,91,0.00,CLR,,0.00,0.0,WeatherDisplay:10.37,2013-05-04 04:51:00,
2013-05-04 00:56:00,56.0,53.4,30.00,ESE,123,11.5,11.5,91,0.00,CLR,,0.00,0.0,WeatherDisplay:10.37,2013-05-04 04:56:00,
2013-05-04 01:01:00,56.0,53.4,29.99,ENE,73,16.1,16.1,91,0.00,CLR,,0.00,0.0,WeatherDisplay:10.37,2013-05-04 05:01:00,
2013-05-04 01:06:00,56.0,53.4,29.99,East,96,15.0,15.0,91,0.00,CLR,,0.00,0.0,WeatherDisplay:10.37,2013-05-04 05:06:00,
2013-05-04 01:11:00,56.0,53.4,29.99,ESE,120,18.4,18.4,91,0.00,CLR,,0.00,0.0,WeatherDisplay:10.37,2013-05-04 05:11:00,
2013-05-04 01:16:00,56.0,53.4,29.99,SE,137,13.8,13.8,91,0.00,CLR,,0.00,0.0,WeatherDisplay:10.37,2013-05-04 05:16:00,
2013-05-04 01:21:00,56.1,53.2,29.99,SE,136,13.8,13.8,90,0.00,CLR,,0.00,0.0,WeatherDisplay:10.37,2013-05-04 05:21:00,
2013-05-04 01:26:00,56.2,53.3,29.99,NNE,15,17.3,17.3,90,0.00,CLR,,0.00,0.0,WeatherDisplay:10.37,2013-05-04 05:26:00,
2013-05-04 01:31:00,56.1,53.2,29.99,ESE,119,13.8,13.8,90,0.00,CLR,,0.00,0.0,WeatherDisplay:10.37,2013-05-04 05:31:00,
2013-05-04 01:36:00,56.1,53.2,29.99,East,95,25.3,25.3,90,0.00,CLR,,0.00,0.0,WeatherDisplay:10.37,2013-05-04 05:36:00,
2013-05-04 01:41:00,56.2,53.3,29.99,ENE,72,11.5,11.5,90,0.00,CLR,,0.00,0.0,WeatherDisplay:10.37,2013-05-04 05:41:00,
2013-05-04 01:46:00,56.2,53.3,29.98,ESE,123,18.4,18.4,90,0.00,CLR,,0.00,0.0,WeatherDisplay:10.37,2013-05-04 05:46:00,
2013-05-04 01:51:00,56.2,53.3,29.99,East,99,11.5,11.5,90,0.00,CLR,,0.00,0.0,WeatherDisplay:10.37,2013-05-04 05:51:00,
2013-05-04 01:56:00,56.2,53.0,29.98,East,87,20.7,20.7,89,0.00,CLR,,0.00,0.0,WeatherDisplay:10.37,2013-05-04 05:56:00,
2013-05-04 02:01:00,56.2,53.0,29.99,SSE,148,21.9,21.9,89,0.00,CLR,,0.00,0.0,WeatherDisplay:10.37,2013-05-04 06:01:00,
2013-05-04 02:06:00,56.1,52.6,29.98,NNE,30,18.4,18.4,88,0.00,CLR,,0.00,0.0,WeatherDisplay:10.37,2013-05-04 06:06:00,
2013-05-04 02:11:00,56.1,52.3,29.98,SE,129,21.9,21.9,87,0.00,CLR,,0.00,0.0,WeatherDisplay:10.37,2013-05-04 06:11:00,
2013-05-04 02:16:00,56.1,52.3,29.98,ESE,111,11.5,11.5,87,0.00,CLR,,0.00,0.0,WeatherDisplay:10.37,2013-05-04 06:16:00,
2013-05-04 02:21:00,56.1,52.3,29.98,ESE,117,19.6,19.6,87,0.00,CLR,,0.00,0.0,WeatherDisplay:10.37,2013-05-04 06:21:00,
2013-05-04 02:26:00,56.0,52.2,29.97,East,92,15.0,15.0,87,0.00,CLR,,0.00,0.0,WeatherDisplay:10.37,2013-05-04 06:26:00,
2013-05-04 02:31:00,56.0,52.2,29.97,ENE,66,12.7,12.7,87,0.00,CLR,,0.00,0.0,WeatherDisplay:10.37,2013-05-04 06:31:00,
2013-05-04 02:36:00,56.0,52.2,29.97,ESE,105,13.8,13.8,87,0.00,CLR,,0.00,0.0,WeatherDisplay:10.37,2013-05-04 06:36:00,
2013-05-04 02:41:00,55.9,52.1,29.97,East,85,19.6,19.6,87,0.00,CLR,,0.00,0.0,WeatherDisplay:10.37,2013-05-04 06:41:00,
2013-05-04 02:46:00,55.9,52.1,29.96,ENE,71,13.8,13.8,87,0.00,CLR,,0.00,0.0,WeatherDisplay:10.37,2013-05-04 06:46:00,
2013-05-04 02:51:00,55.8,52.0,29.96,North,360,17.3,17.3,87,0.00,CLR,,0.00,0.0,WeatherDisplay:10.37,2013-05-04 06:51:00,
2013-05-04 02:56:00,55.8,52.0,29.97,ENE,67,21.9,21.9,87,0.00,CLR,,0.00,0.0,WeatherDisplay:10.37,2013-05-04 06:56:00,
2013-05-04 03:01:00,55.7,51.9,29.96,SSE,161,12.0,12.0,87,0.00,CLR,,0.00,0.0,WeatherDisplay:10.37,2013-05-04 07:01:00,
2013-05-04 03:06:00,55.7,51.9,29.96,ESE,113,12.0,12.0,87,0.00,CLR,,0.00,0.0,WeatherDisplay:10.37,2013-05-04 07:06:00,
2013-05-04 03:11:00,55.6,51.8,29.96,ESE,106,13.8,13.8,87,0.00,CLR,,0.00,0.0,WeatherDisplay:10.37,2013-05-04 07:11:00,
2013-05-04 03:16:00,55.4,51.6,29.96,ESE,111,20.7,20.7,87,0.00,CLR,,0.00,0.0,WeatherDisplay:10.37,2013-05-04 07:16:00,
2013-05-04 03:21:00,55.2,51.7,29.96,SE,130,17.0,17.0,88,0.00,CLR,,0.00,0.0,WeatherDisplay:10.37,2013-05-04 07:21:00,
2013-05-04 03:26:00,55.1,51.3,29.96,East,98,15.0,15.0,87,0.00,CLR,,0.00,0.0,WeatherDisplay:10.37,2013-05-04 07:26:00,
2013-05-04 03:32:00,55.0,51.2,29.96,SSE,159,18.4,18.4,87,0.00,CLR,,0.00,0.0,WeatherDisplay:10.37,2013-05-04 07:32:00,
2013-05-04 03:37:00,55.0,51.2,29.96,ESE,110,12.0,12.0,87,0.00,CLR,,0.00,0.0,WeatherDisplay:10.37,2013-05-04 07:37:00,
2013-05-04 03:42:00,54.9,50.8,29.96,ESE,112,6.0,6.0,86,0.00,CLR,,0.00,0.0,WeatherDisplay:10.37,2013-05-04 07:42:00,
2013-05-04 03:47:00,54.8,50.7,29.96,ENE,77,13.8,13.8,86,0.00,CLR,,0.00,0.0,WeatherDisplay:10.37,2013-05-04 07:47:00,
2013-05-04 03:52:00,54.7,50.6,29.96,East,85,15.0,15.0,86,0.00,CLR,,0.00,0.0,WeatherDisplay:10.37,2013-05-04 07:52:00,
2013-05-04 03:57:00,54.6,50.2,29.96,SE,139,12.7,12.7,85,0.00,CLR,,0.00,0.0,WeatherDisplay:10.37,2013-05-04 07:57:00,
2013-05-04 04:02:00,54.5,50.1,29.97,ESE,117,13.8,13.8,85,0.00,CLR,,0.00,0.0,WeatherDisplay:10.37,2013-05-04 08:02:00,
2013-05-04 04:07:00,54.4,50.0,29.96,ESE,121,21.9,21.9,85,0.00,CLR,,0.00,0.0,WeatherDisplay:10.37,2013-05-04 08:07:00,
2013-05-04 04:12:00,54.2,49.8,29.97,ESE,117,16.1,16.1,85,0.00,CLR,,0.00,0.0,WeatherDisplay:10.37,2013-05-04 08:12:00,
2013-05-04 04:17:00,53.9,49.8,29.96,SE,130,19.6,19.6,86,0.00,CLR,,0.00,0.0,WeatherDisplay:10.37,2013-05-04 08:17:00,
2013-05-04 04:22:00,53.6,49.5,29.96,NNE,27,12.7,12.7,86,0.00,CLR,,0.00,0.0,WeatherDisplay:10.37,2013-05-04 08:22:00,
2013-05-04 04:27:00,53.3,49.5,29.96,East,86,6.9,6.9,87,0.00,CLR,,0.00,0.0,WeatherDisplay:10.37,2013-05-04 08:27:00,
2013-05-04 04:32:00,53.1,49.3,29.95,ENE,70,11.5,0.0,87,0.00,CLR,,0.00,0.0,WeatherDisplay:10.37,2013-05-04 08:32:00,
2013-05-04 04:37:00,53.0,49.2,29.95,ENE,72,11.5,11.5,87,0.00,CLR,,0.00,0.0,WeatherDisplay:10.37,2013-05-04 08:37:00,
2013-05-04 04:42:00,52.9,48.8,29.95,ENE,66,9.2,9.2,86,0.00,CLR,,0.00,0.0,WeatherDisplay:10.37,2013-05-04 08:42:00,
2013-05-04 04:47:00,52.8,48.7,29.95,ESE,111,11.0,11.0,86,0.00,CLR,,0.00,0.0,WeatherDisplay:10.37,2013-05-04 08:47:00,
2013-05-04 04:52:00,52.7,48.3,29.95,East,82,12.7,12.7,85,0.00,CLR,,0.00,0.0,WeatherDisplay:10.37,2013-05-04 08:52:00,
2013-05-04 04:57:00,52.7,47.7,29.95,ESE,115,19.6,19.6,83,0.00,CLR,,0.00,0.0,WeatherDisplay:10.37,2013-05-04 08:57:00,
2013-05-04 05:02:00,53.0,47.3,29.95,SE,135,19.6,19.6,81,0.00,CLR,,0.00,0.0,WeatherDisplay:10.37,2013-05-04 09:02:00,
2013-05-04 05:07:00,53.1,46.8,29.96,East,88,13.8,13.8,79,0.00,CLR,,0.00,0.0,WeatherDisplay:10.37,2013-05-04 09:07:00,
2013-05-04 05:12:00,53.2,46.2,29.96,East,84,12.7,12.7,77,0.00,CLR,,0.00,0.0,WeatherDisplay:10.37,2013-05-04 09:12:00,
2013-05-04 05:17:00,53.3,46.3,29.96,East,98,5.8,5.8,77,0.00,CLR,,0.00,0.0,WeatherDisplay:10.37,2013-05-04 09:17:00,
2013-05-04 05:22:00,53.1,46.1,29.96,ESE,118,12.7,12.7,77,0.00,CLR,,0.00,0.0,WeatherDisplay:10.37,2013-05-04 09:22:00,
2013-05-04 05:27:00,53.0,46.0,29.96,SSE,163,12.7,12.7,77,0.00,CLR,,0.00,0.0,WeatherDisplay:10.37,2013-05-04 09:27:00,
2013-05-04 05:32:00,52.9,45.9,29.96,ESE,119,17.3,17.3,77,0.00,CLR,,0.00,0.0,WeatherDisplay:10.37,2013-05-04 09:32:00,
2013-05-04 05:37:00,52.9,45.9,29.95,East,100,10.4,10.4,77,0.00,CLR,,0.00,0.0,WeatherDisplay:10.37,2013-05-04 09:37:00,
2013-05-04 05:42:00,52.7,46.0,29.95,East,95,18.0,18.0,78,0.00,CLR,,0.00,0.0,WeatherDisplay:10.37,2013-05-04 09:42:00,
2013-05-04 05:47:00,52.4,46.4,29.95,East,90,13.8,13.8,80,0.00,CLR,,0.00,0.0,WeatherDisplay:10.37,2013-05-04 09:47:00,
2013-05-04 05:52:00,52.2,46.9,29.96,East,89,13.8,13.8,82,0.00,CLR,,0.00,0.0,WeatherDisplay:10.37,2013-05-04 09:52:00,
2013-05-04 05:57:00,52.0,47.0,29.95,East,91,18.4,18.4,83,0.00,CLR,,0.00,0.0,WeatherDisplay:10.37,2013-05-04 09:57:00,
2013-05-04 06:02:00,51.7,47.3,29.96,East,89,13.8,13.8,85,0.00,CLR,,0.00,0.0,WeatherDisplay:10.37,2013-05-04 10:02:00,
2013-05-04 06:07:00,51.5,47.1,29.95,ESE,122,19.6,19.6,85,0.00,CLR,,0.00,0.0,WeatherDisplay:10.37,2013-05-04 10:07:00,
2013-05-04 06:12:00,51.4,47.4,29.96,East,86,11.5,11.5,86,0.00,CLR,,0.00,0.0,WeatherDisplay:10.37,2013-05-04 10:12:00,
2013-05-04 06:17:00,51.2,47.5,29.96,ESE,109,11.5,11.5,87,0.01,RA,,0.01,0.0,WeatherDisplay:10.37,2013-05-04 10:17:00,
2013-05-04 06:22:00,51.0,47.9,29.96,ENE,74,11.5,11.5,89,0.01,RA,,0.01,0.0,WeatherDisplay:10.37,2013-05-04 10:22:00,
2013-05-04 06:27:00,50.8,48.0,29.96,East,92,11.0,11.0,90,0.01,CLR,,0.01,0.0,WeatherDisplay:10.37,2013-05-04 10:27:00,
2013-05-04 06:32:00,50.6,48.1,29.97,East,94,9.2,9.2,91,0.01,CLR,,0.01,0.0,WeatherDisplay:10.37,2013-05-04 10:32:00,
2013-05-04 06:37:00,50.5,48.3,29.97,East,89,6.9,6.9,92,0.01,CLR,,0.01,0.0,WeatherDisplay:10.37,2013-05-04 10:37:00,
2013-05-04 06:42:00,50.3,48.1,29.97,East,97,14.0,14.0,92,0.02,RA,,0.02,0.0,WeatherDisplay:10.37,2013-05-04 10:42:00,
2013-05-04 06:47:00,50.1,48.2,29.97,ESE,111,13.8,13.8,93,0.04,RA,,0.04,0.0,WeatherDisplay:10.37,2013-05-04 10:47:00,
2013-05-04 06:52:00,49.9,48.0,29.97,ENE,77,15.0,15.0,93,0.05,RA,,0.05,0.0,WeatherDisplay:10.37,2013-05-04 10:52:00,
2013-05-04 06:57:00,49.7,48.0,29.97,East,92,13.8,13.8,94,0.06,RA,,0.06,7.0,WeatherDisplay:10.37,2013-05-04 10:57:00,
2013-05-04 07:02:00,49.4,47.7,29.98,ESE,106,21.9,21.9,94,0.06,RA,,0.06,9.0,WeatherDisplay:10.37,2013-05-04 11:02:00,
2013-05-04 07:07:00,49.2,47.5,29.98,NNE,15,12.7,12.7,94,0.07,RA,,0.07,9.0,WeatherDisplay:10.37,2013-05-04 11:07:00,
2013-05-04 07:12:00,48.9,47.2,29.99,ENE,76,16.1,16.1,94,0.08,RA,,0.08,5.0,WeatherDisplay:10.37,2013-05-04 11:12:00,
2013-05-04 07:17:00,48.7,47.1,29.99,ESE,105,3.5,3.5,94,0.10,RA,,0.11,0.0,WeatherDisplay:10.37,2013-05-04 11:17:00,
2013-05-04 07:22:00,48.5,46.9,29.99,SE,141,12.7,12.7,94,0.11,RA,,0.12,0.0,WeatherDisplay:10.37,2013-05-04 11:22:00,
2013-05-04 07:27:00,48.4,47.0,29.98,East,91,15.0,15.0,95,0.12,RA,,0.13,9.0,WeatherDisplay:10.37,2013-05-04 11:27:00,
2013-05-04 07:32:00,48.3,46.9,29.99,NE,49,3.5,3.5,95,0.12,RA,,0.13,7.0,WeatherDisplay:10.37,2013-05-04 11:32:00,
2013-05-04 07:37:00,48.2,46.8,29.99,ESE,105,11.5,11.5,95,0.13,RA,,0.15,14.0,WeatherDisplay:10.37,2013-05-04 11:37:00,
2013-05-04 07:42:00,48.1,46.7,30.00,NE,42,11.5,11.5,95,0.13,RA,,0.16,19.0,WeatherDisplay:10.37,2013-05-04 11:42:00,
2013-05-04 07:47:00,48.1,46.7,30.00,ENE,74,13.8,13.8,95,0.12,RA,,0.16,14.0,WeatherDisplay:10.37,2013-05-04 11:47:00,
2013-05-04 07:53:00,48.1,46.7,30.00,East,84,6.9,6.9,95,0.12,RA,,0.17,18.0,WeatherDisplay:10.37,2013-05-04 11:53:00,
2013-05-04 07:58:00,48.1,47.0,30.00,ENE,59,15.0,15.0,96,0.12,RA,,0.18,18.0,WeatherDisplay:10.37,2013-05-04 11:58:00,
2013-05-04 08:04:00,48.1,47.0,29.99,ENE,68,16.1,16.1,96,0.11,RA,,0.18,14.0,WeatherDisplay:10.37,2013-05-04 12:04:00,
2013-05-04 08:09:00,48.1,47.0,29.99,ESE,111,11.5,11.5,96,0.11,RA,,0.19,12.0,WeatherDisplay:10.37,2013-05-04 12:09:00,
2013-05-04 08:14:00,48.1,47.0,29.99,East,88,13.8,13.8,96,0.12,RA,,0.21,14.0,WeatherDisplay:10.37,2013-05-04 12:14:00,
2013-05-04 08:19:00,48.2,47.1,29.99,East,91,12.7,12.7,96,0.11,RA,,0.22,18.0,WeatherDisplay:10.37,2013-05-04 12:19:00,
2013-05-04 08:24:00,48.2,47.1,29.99,ESE,110,20.7,20.7,96,0.10,RA,,0.22,23.0,WeatherDisplay:10.37,2013-05-04 12:24:00,
2013-05-04 08:29:00,48.2,47.1,29.99,SE,146,9.2,9.2,96,0.10,RA,,0.23,19.0,WeatherDisplay:10.37,2013-05-04 12:29:00,
2013-05-04 08:34:00,48.3,47.2,29.98,SE,128,11.5,11.5,96,0.10,RA,,0.24,21.0,WeatherDisplay:10.37,2013-05-04 12:34:00,
2013-05-04 08:39:00,48.3,47.2,29.98,ENE,65,13.8,13.8,96,0.11,RA,,0.25,49.0,WeatherDisplay:10.37,2013-05-04 12:39:00,
2013-05-04 08:45:00,48.3,47.2,29.98,ESE,119,17.3,17.3,96,0.11,RA,,0.27,44.0,WeatherDisplay:10.37,2013-05-04 12:45:00,
2013-05-04 08:50:00,48.3,47.2,29.98,ESE,104,11.5,11.5,96,0.11,RA,,0.27,47.0,WeatherDisplay:10.37,2013-05-04 12:50:00,
2013-05-04 08:55:00,48.4,47.3,29.98,East,84,13.8,13.8,96,0.11,RA,,0.28,40.0,WeatherDisplay:10.37,2013-05-04 12:55:00,
2013-05-04 09:00:00,48.4,47.3,29.98,ENE,61,11.5,11.5,96,0.10,RA,,0.28,32.0,WeatherDisplay:10.37,2013-05-04 13:00:00,
2013-05-04 09:04:00,48.4,47.3,29.97,East,91,18.4,18.4,96,0.11,RA,,0.29,39.0,WeatherDisplay:10.37,2013-05-04 13:04:00,
2013-05-04 09:09:00,48.4,47.3,29.98,East,88,12.7,12.7,96,0.11,RA,,0.30,42.0,WeatherDisplay:10.37,2013-05-04 13:09:00,
2013-05-04 09:14:00,48.5,47.4,29.97,ENE,74,9.2,9.2,96,0.12,RA,,0.33,37.0,WeatherDisplay:10.37,2013-05-04 13:14:00,
2013-05-04 09:19:00,48.5,47.4,29.97,East,89,18.4,18.4,96,0.11,RA,,0.33,63.0,WeatherDisplay:10.37,2013-05-04 13:19:00,
2013-05-04 09:24:00,48.5,47.4,29.97,ESE,121,19.6,19.6,96,0.12,RA,,0.34,49.0,WeatherDisplay:10.37,2013-05-04 13:24:00,
2013-05-04 09:29:00,48.5,47.4,29.97,ENE,57,10.4,10.4,96,0.11,RA,,0.34,67.0,WeatherDisplay:10.37,2013-05-04 13:29:00,
2013-05-04 09:34:00,48.6,47.5,29.97,ENE,74,11.5,11.5,96,0.11,RA,,0.35,86.0,WeatherDisplay:10.37,2013-05-04 13:34:00,
2013-05-04 09:39:00,48.6,47.5,29.97,East,100,13.0,13.0,96,0.10,RA,,0.35,54.0,WeatherDisplay:10.37,2013-05-04 13:39:00,
2013-05-04 09:44:00,48.6,47.5,29.97,East,87,19.6,19.6,96,0.10,RA,,0.36,47.0,WeatherDisplay:10.37,2013-05-04 13:44:00,
2013-05-04 09:49:00,48.6,47.5,29.97,East,96,19.6,19.6,96,0.11,RA,,0.38,28.0,WeatherDisplay:10.37,2013-05-04 13:49:00,
2013-05-04 09:54:00,48.6,47.5,29.97,ESE,116,11.5,11.5,96,0.12,RA,,0.40,32.0,WeatherDisplay:10.37,2013-05-04 13:54:00,
2013-05-04 09:59:00,48.6,47.5,29.97,ESE,104,17.3,17.3,96,0.15,RA,,0.42,51.0,WeatherDisplay:10.37,2013-05-04 13:59:00,
2013-05-04 10:04:00,48.6,47.5,29.97,ENE,74,13.8,13.8,96,0.13,RA,,0.44,81.0,WeatherDisplay:10.37,2013-05-04 14:04:00,
2013-05-04 10:09:00,48.7,47.6,29.96,ESE,113,16.1,16.1,96,0.13,RA,,0.44,139.0,WeatherDisplay:10.37,2013-05-04 14:09:00,
2013-05-04 10:14:00,48.8,48.0,29.96,East,83,11.5,11.5,97,0.12,RA,,0.45,135.0,WeatherDisplay:10.37,2013-05-04 14:14:00,
2013-05-04 10:19:00,48.9,48.1,29.96,East,94,12.0,12.0,97,0.13,RA,,0.46,137.0,WeatherDisplay:10.37,2013-05-04 14:19:00,
2013-05-04 10:24:00,49.0,48.2,29.96,NE,56,11.5,11.5,97,0.12,RA,,0.46,144.0,WeatherDisplay:10.37,2013-05-04 14:24:00,
2013-05-04 10:29:00,49.1,48.3,29.96,East,88,19.6,19.6,97,0.12,OVC,,0.46,127.0,WeatherDisplay:10.37,2013-05-04 14:29:00,
2013-05-04 10:34:00,49.1,48.3,29.96,ENE,78,18.4,18.4,97,0.11,OVC,,0.46,128.0,WeatherDisplay:10.37,2013-05-04 14:34:00,
2013-05-04 10:39:00,49.1,48.0,29.96,ENE,69,11.5,11.5,96,0.11,OVC,,0.46,153.0,WeatherDisplay:10.37,2013-05-04 14:39:00,
2013-05-04 10:45:00,49.1,48.0,29.96,East,80,15.0,15.0,96,0.10,OVC,,0.46,144.0,WeatherDisplay:10.37,2013-05-04 14:45:00,
2013-05-04 10:50:00,49.2,48.1,29.96,ENE,76,25.0,25.0,96,0.08,OVC,,0.46,84.0,WeatherDisplay:10.37,2013-05-04 14:50:00,
2013-05-04 10:55:00,49.2,48.1,29.96,SSE,161,23.0,23.0,96,0.06,OVC,,0.46,93.0,WeatherDisplay:10.37,2013-05-04 14:55:00,
2013-05-04 11:00:00,49.2,48.1,29.96,NE,35,15.0,15.0,96,0.05,RA,,0.47,125.0,WeatherDisplay:10.37,2013-05-04 15:00:00,
2013-05-04 11:05:00,49.3,48.2,29.96,East,100,13.8,13.8,96,0.05,RA,,0.47,160.0,WeatherDisplay:10.37,2013-05-04 15:05:00,
2013-05-04 11:10:00,49.4,48.3,29.96,ENE,76,16.1,16.1,96,0.04,OVC,,0.47,79.0,WeatherDisplay:10.37,2013-05-04 15:10:00,
2013-05-04 11:15:00,49.3,48.2,29.97,East,91,13.8,13.8,96,0.02,OVC,,0.47,72.0,WeatherDisplay:10.37,2013-05-04 15:15:00,
2013-05-04 11:20:00,49.3,48.2,29.97,East,100,15.0,15.0,96,0.01,OVC,,0.47,74.0,WeatherDisplay:10.37,2013-05-04 15:20:00,
2013-05-04 11:25:00,49.3,48.2,29.97,NE,49,13.8,13.8,96,0.01,OVC,,0.47,98.0,WeatherDisplay:10.37,2013-05-04 15:25:00,
2013-05-04 11:30:00,49.4,48.3,29.97,East,96,19.6,19.6,96,0.01,OVC,,0.47,113.0,WeatherDisplay:10.37,2013-05-04 15:30:00,
2013-05-04 11:35:00,49.5,48.7,29.97,SSE,156,19.6,19.6,97,0.01,OVC,,0.47,134.0,WeatherDisplay:10.37,2013-05-04 15:35:00,
2013-05-04 11:40:00,49.6,48.8,29.97,East,88,15.0,15.0,97,0.02,RA,,0.48,132.0,WeatherDisplay:10.37,2013-05-04 15:40:00,
2013-05-04 11:45:00,49.7,48.9,29.97,East,89,11.5,11.5,97,0.02,RA,,0.48,174.0,WeatherDisplay:10.37,2013-05-04 15:45:00,
2013-05-04 11:50:00,49.8,49.0,29.97,East,84,11.5,11.5,97,0.04,RA,,0.50,183.0,WeatherDisplay:10.37,2013-05-04 15:50:00,
2013-05-04 11:55:00,49.9,49.1,29.97,ESE,108,11.5,11.5,97,0.04,RA,,0.50,128.0,WeatherDisplay:10.37,2013-05-04 15:55:00,
2013-05-04 12:00:00,49.9,49.1,29.98,East,87,13.0,13.0,97,0.02,CLR,,0.50,97.0,WeatherDisplay:10.37,2013-05-04 16:00:00,
2013-05-04 12:05:00,50.0,49.2,29.97,ESE,109,15.0,15.0,97,0.02,CLR,,0.50,107.0,WeatherDisplay:10.37,2013-05-04 16:05:00,
2013-05-04 12:10:00,49.9,48.8,29.97,ESE,108,11.5,11.5,96,0.02,CLR,,0.51,111.0,WeatherDisplay:10.37,2013-05-04 16:10:00,
2013-05-04 12:15:00,49.9,48.8,29.97,East,90,16.1,16.1,96,0.04,RA,,0.51,100.0,WeatherDisplay:10.37,2013-05-04 16:15:00,
2013-05-04 12:20:00,49.9,48.8,29.96,East,91,9.2,9.2,96,0.04,RA,,0.51,118.0,WeatherDisplay:10.37,2013-05-04 16:20:00,
2013-05-04 12:25:00,49.9,49.1,29.96,ENE,64,16.1,16.1,97,0.04,CLR,,0.51,128.0,WeatherDisplay:10.37,2013-05-04 16:25:00,
2013-05-04 12:30:00,50.0,48.9,29.96,East,85,13.8,13.8,96,0.04,CLR,,0.51,83.0,WeatherDisplay:10.37,2013-05-04 16:30:00,
2013-05-04 12:35:00,50.1,49.3,29.95,SE,134,17.3,17.3,97,0.04,FEW,,0.51,97.0,WeatherDisplay:10.37,2013-05-04 16:35:00,
2013-05-04 12:40:00,50.1,49.3,29.95,East,95,15.0,15.0,97,0.02,SCT,,0.51,95.0,WeatherDisplay:10.37,2013-05-04 16:40:00,
2013-05-04 12:45:00,50.1,49.3,29.95,East,89,11.5,11.5,97,0.02,SCT,,0.51,79.0,WeatherDisplay:10.37,2013-05-04 16:45:00,
2013-05-04 12:50:00,50.1,49.3,29.95,ESE,115,12.7,12.7,97,0.01,BKN,,0.51,67.0,WeatherDisplay:10.37,2013-05-04 16:50:00,
2013-05-04 12:55:00,50.2,49.4,29.95,East,99,16.1,16.1,97,0.01,BKN,,0.51,70.0,WeatherDisplay:10.37,2013-05-04 16:55:00,
2013-05-04 13:00:00,50.2,49.4,29.95,East,98,13.0,13.0,97,0.01,BKN,,0.51,77.0,WeatherDisplay:10.37,2013-05-04 17:00:00,
2013-05-04 13:05:00,50.2,49.4,29.95,East,81,11.5,11.5,97,0.02,RA,,0.52,54.0,WeatherDisplay:10.37,2013-05-04 17:05:00,
2013-05-04 13:10:00,50.2,49.4,29.95,ENE,72,13.8,13.8,97,0.04,RA,,0.53,51.0,WeatherDisplay:10.37,2013-05-04 17:10:00,
2013-05-04 13:15:00,50.2,49.4,29.94,East,92,11.5,11.5,97,0.04,RA,,0.54,25.0,WeatherDisplay:10.37,2013-05-04 17:15:00,
2013-05-04 13:20:00,50.2,49.4,29.94,ENE,65,10.4,10.4,97,0.04,RA,,0.56,39.0,WeatherDisplay:10.37,2013-05-04 17:20:00,
2013-05-04 13:25:00,50.1,49.3,29.93,East,82,16.1,16.1,97,0.05,RA,,0.56,67.0,WeatherDisplay:10.37,2013-05-04 17:25:00,
2013-05-04 13:30:00,50.1,49.3,29.93,NE,40,16.1,16.1,97,0.06,RA,,0.57,127.0,WeatherDisplay:10.37,2013-05-04 17:30:00,
2013-05-04 13:35:00,50.3,49.5,29.93,ESE,117,13.0,13.0,97,0.06,RA,,0.58,214.0,WeatherDisplay:10.37,2013-05-04 17:35:00,
2013-05-04 13:40:00,50.5,49.7,29.93,NNE,19,9.2,9.2,97,0.07,RA,,0.58,206.0,WeatherDisplay:10.37,2013-05-04 17:40:00,
2013-05-04 13:45:00,50.6,49.8,29.93,SE,141,19.6,19.6,97,0.07,RA,,0.58,144.0,WeatherDisplay:10.37,2013-05-04 17:45:00,
2013-05-04 13:50:00,50.7,49.9,29.93,ESE,103,25.3,25.3,97,0.07,BKN,,0.58,156.0,WeatherDisplay:10.37,2013-05-04 17:50:00,
2013-05-04 13:55:00,50.7,49.9,29.93,ENE,61,6.9,8.1,97,0.08,RA,,0.59,56.0,WeatherDisplay:10.37,2013-05-04 17:55:00,
2013-05-04 14:00:00,50.7,49.9,29.93,East,95,19.6,19.6,97,0.08,RA,,0.59,33.0,WeatherDisplay:10.37,2013-05-04 18:00:00,
2013-05-04 14:05:00,50.6,49.8,29.92,ENE,78,21.9,21.9,97,0.07,BKN,,0.59,139.0,WeatherDisplay:10.37,2013-05-04 18:05:00,
2013-05-04 14:10:00,50.7,49.9,29.92,East,96,17.3,17.3,97,0.06,BKN,,0.60,91.0,WeatherDisplay:10.37,2013-05-04 18:10:00,
2013-05-04 14:15:00,50.8,50.0,29.92,ENE,73,12.7,12.7,97,0.07,RA,,0.62,109.0,WeatherDisplay:10.37,2013-05-04 18:15:00,
2013-05-04 14:20:00,50.8,50.0,29.92,East,96,3.0,18.0,97,0.00,RA,,0.62,84.0,WeatherDisplay:10.37,2013-05-04 18:20:00,
2013-05-04 14:25:00,50.8,50.0,29.93,NE,44,15.0,15.0,97,0.06,BKN,,0.62,42.0,WeatherDisplay:10.37,2013-05-04 18:25:00,
2013-05-04 14:30:00,50.8,50.0,29.93,ENE,64,15.0,15.0,97,0.05,BKN,,0.62,46.0,WeatherDisplay:10.37,2013-05-04 18:30:00,
2013-05-04 14:35:00,50.8,50.0,29.91,NE,53,18.4,18.4,97,0.05,RA,,0.63,69.0,WeatherDisplay:10.37,2013-05-04 18:35:00,
2013-05-04 14:40:00,50.8,50.0,29.92,ENE,68,17.0,17.0,97,0.06,RA,,0.64,67.0,WeatherDisplay:10.37,2013-05-04 18:40:00,
2013-05-04 14:45:00,50.9,50.1,29.93,East,100,9.2,9.2,97,0.07,RA,,0.65,42.0,WeatherDisplay:10.37,2013-05-04 18:45:00,
2013-05-04 14:50:00,50.9,50.1,29.93,East,97,11.5,11.5,97,0.08,RA,,0.67,77.0,WeatherDisplay:10.37,2013-05-04 18:50:00,
2013-05-04 14:55:00,51.0,50.2,29.93,NE,41,3.5,3.5,97,0.08,RA,,0.68,70.0,WeatherDisplay:10.37,2013-05-04 18:55:00,
2013-05-04 15:00:00,51.0,50.2,29.94,East,100,15.0,15.0,97,0.10,RA,,0.69,39.0,WeatherDisplay:10.37,2013-05-04 19:00:00,
2013-05-04 15:05:00,51.0,50.2,29.93,ESE,121,13.8,13.8,97,0.11,RA,,0.70,98.0,WeatherDisplay:10.37,2013-05-04 19:05:00,
2013-05-04 15:10:00,51.0,50.2,29.93,East,84,13.8,13.8,97,0.12,RA,,0.71,56.0,WeatherDisplay:10.37,2013-05-04 19:10:00,
2013-05-04 15:15:00,51.0,50.2,29.92,SE,142,11.5,11.5,97,0.11,RA,,0.73,77.0,WeatherDisplay:10.37,2013-05-04 19:15:00,
2013-05-04 15:20:00,51.1,50.3,29.92,ENE,71,19.6,19.6,97,0.11,RA,,0.73,56.0,WeatherDisplay:10.37,2013-05-04 19:20:00,
2013-05-04 15:25:00,51.1,50.3,29.92,ENE,69,12.7,12.7,97,0.11,BKN,,0.73,46.0,WeatherDisplay:10.37,2013-05-04 19:25:00,
2013-05-04 15:30:00,51.1,50.3,29.92,East,90,9.2,9.2,97,0.11,OVC,,0.73,33.0,WeatherDisplay:10.37,2013-05-04 19:30:00,
2013-05-04 15:35:00,51.1,50.3,29.91,ENE,77,11.5,11.5,97,0.11,RA,,0.74,47.0,WeatherDisplay:10.37,2013-05-04 19:35:00,
2013-05-04 15:40:00,51.1,50.3,29.91,ESE,110,12.7,12.7,97,0.10,RA,,0.74,42.0,WeatherDisplay:10.37,2013-05-04 19:40:00,
2013-05-04 15:45:00,51.1,50.3,29.93,SE,126,4.6,4.6,97,0.08,OVC,,0.74,33.0,WeatherDisplay:10.37,2013-05-04 19:45:00,
2013-05-04 15:50:00,51.0,50.2,29.94,ESE,107,5.0,5.0,97,0.08,RA,,0.75,40.0,WeatherDisplay:10.37,2013-05-04 19:50:00,
2013-05-04 15:55:00,51.0,50.2,29.93,ESE,108,6.9,6.9,97,0.08,RA,,0.76,49.0,WeatherDisplay:10.37,2013-05-04 19:55:00,
2013-05-04 16:00:00,51.1,50.3,29.93,ENE,76,11.5,11.5,97,0.11,RA,,0.81,40.0,WeatherDisplay:10.37,2013-05-04 20:00:00,
2013-05-04 16:05:00,51.1,50.3,29.93,East,100,5.8,5.8,97,0.13,RA,,0.83,33.0,WeatherDisplay:10.37,2013-05-04 20:05:00,
2013-05-04 16:10:00,51.0,50.2,29.94,NE,55,8.1,8.1,97,0.13,RA,,0.86,21.0,WeatherDisplay:10.37,2013-05-04 20:10:00,
2013-05-04 16:15:00,51.0,50.2,29.94,ESE,105,11.5,11.5,97,0.13,RA,,0.86,23.0,WeatherDisplay:10.37,2013-05-04 20:15:00,
2013-05-04 16:20:00,50.9,50.1,29.94,East,96,3.5,3.5,97,0.15,RA,,0.87,12.0,WeatherDisplay:10.37,2013-05-04 20:20:00,
2013-05-04 16:25:00,50.9,50.1,29.93,East,93,11.5,11.5,97,0.16,RA,,0.88,32.0,WeatherDisplay:10.37,2013-05-04 20:25:00,
2013-05-04 16:30:00,50.9,50.1,29.90,ENE,69,16.1,16.1,97,0.19,RA,,0.92,84.0,WeatherDisplay:10.37,2013-05-04 20:30:00,
2013-05-04 16:35:00,50.9,50.1,29.89,East,101,15.0,15.0,97,0.21,RA,,0.96,69.0,WeatherDisplay:10.37,2013-05-04 20:35:00,
2013-05-04 16:40:00,50.9,50.1,29.90,East,91,13.8,13.8,97,0.23,RA,,0.97,46.0,WeatherDisplay:10.37,2013-05-04 20:40:00,
2013-05-04 16:45:00,50.9,50.1,29.91,NNE,21,9.2,9.2,97,0.24,RA,,0.98,25.0,WeatherDisplay:10.37,2013-05-04 20:45:00,
2013-05-04 16:50:00,50.9,50.1,29.92,ESE,107,6.9,6.9,97,0.25,RA,,1.00,16.0,WeatherDisplay:10.37,2013-05-04 20:50:00,
2013-05-04 16:55:00,50.9,50.1,29.94,East,99,3.5,3.5,97,0.27,RA,,1.03,9.0,WeatherDisplay:10.37,2013-05-04 20:55:00,
2013-05-04 17:00:00,50.9,50.1,29.94,NE,56,3.5,3.5,97,0.24,RA,,1.05,5.0,WeatherDisplay:10.37,2013-05-04 21:00:00,
2013-05-04 17:05:00,50.8,50.0,29.94,ESE,107,0.0,0.0,97,0.27,RA,,1.10,5.0,WeatherDisplay:10.37,2013-05-04 21:05:00,
2013-05-04 17:10:00,50.8,50.0,29.93,NE,55,8.0,8.0,97,0.29,RA,,1.14,5.0,WeatherDisplay:10.37,2013-05-04 21:10:00,
2013-05-04 17:15:00,50.8,50.0,29.92,ENE,60,13.0,13.0,97,0.29,RA,,1.15,7.0,WeatherDisplay:10.37,2013-05-04 21:15:00,
2013-05-04 17:20:00,50.7,49.9,29.92,East,98,11.5,11.5,97,0.31,RA,,1.20,11.0,WeatherDisplay:10.37,2013-05-04 21:20:00,
2013-05-04 17:25:00,50.7,49.9,29.92,East,85,10.4,10.4,97,0.34,RA,,1.22,11.0,WeatherDisplay:10.37,2013-05-04 21:25:00,
2013-05-04 17:30:00,50.6,49.8,29.91,East,88,9.2,9.2,97,0.31,RA,,1.23,19.0,WeatherDisplay:10.37,2013-05-04 21:30:00,
2013-05-04 17:35:00,50.6,49.8,29.92,East,83,6.9,6.9,97,0.31,RA,,1.26,19.0,WeatherDisplay:10.37,2013-05-04 21:35:00,
2013-05-04 17:40:00,50.7,49.9,29.93,ESE,107,11.5,11.5,97,0.30,RA,,1.27,9.0,WeatherDisplay:10.37,2013-05-04 21:40:00,
2013-05-04 17:45:00,50.7,49.9,29.95,SE,126,3.5,3.5,97,0.31,RA,,1.29,0.0,WeatherDisplay:10.37,2013-05-04 21:45:00,
2013-05-04 17:50:00,50.7,49.9,29.93,East,86,6.9,6.9,97,0.33,RA,,1.34,12.0,WeatherDisplay:10.37,2013-05-04 21:50:00,
2013-05-04 17:56:00,50.7,49.9,29.90,ESE,107,13.8,13.8,97,0.34,RA,,1.38,19.0,WeatherDisplay:10.37,2013-05-04 21:56:00,
2013-05-04 18:01:00,50.7,49.9,29.93,SSW,213,6.9,6.9,97,0.34,RA,,1.39,19.0,WeatherDisplay:10.37,2013-05-04 22:01:00,
2013-05-04 18:06:00,50.7,49.9,29.94,ESE,105,4.6,4.6,97,0.29,RA,,1.39,16.0,WeatherDisplay:10.37,2013-05-04 22:06:00,
2013-05-04 18:11:00,50.7,49.9,29.93,East,98,9.0,9.0,97,0.27,RA,,1.42,53.0,WeatherDisplay:10.37,2013-05-04 22:11:00,
2013-05-04 18:16:00,50.8,50.0,29.93,East,96,5.8,5.8,97,0.28,RA,,1.44,65.0,WeatherDisplay:10.37,2013-05-04 22:16:00,
2013-05-04 18:21:00,50.9,50.1,29.93,East,82,10.4,10.4,97,0.25,RA,,1.44,79.0,WeatherDisplay:10.37,2013-05-04 22:21:00,
2013-05-04 18:26:00,51.1,50.6,29.93,ESE,109,12.7,12.7,98,0.22,RA,,1.45,105.0,WeatherDisplay:10.37,2013-05-04 22:26:00,
2013-05-04 18:31:00,51.2,50.7,29.93,SE,124,11.5,11.5,98,0.22,RA,,1.45,21.0,WeatherDisplay:10.37,2013-05-04 22:31:00,
2013-05-04 18:36:00,51.2,50.4,29.93,ESE,112,11.0,11.0,97,0.19,RA,,1.45,26.0,WeatherDisplay:10.37,2013-05-04 22:36:00,
2013-05-04 18:41:00,51.2,50.4,29.93,ESE,105,10.4,10.4,97,0.19,RA,,1.46,33.0,WeatherDisplay:10.37,2013-05-04 22:41:00,
2013-05-04 18:46:00,51.2,50.4,29.92,ENE,70,12.7,12.7,97,0.18,RA,,1.48,33.0,WeatherDisplay:10.37,2013-05-04 22:46:00,
2013-05-04 18:51:00,51.1,50.3,29.93,SE,135,5.8,5.8,97,0.16,RA,,1.49,21.0,WeatherDisplay:10.37,2013-05-04 22:51:00,
2013-05-04 18:56:00,51.0,50.2,29.93,SE,126,3.5,0.0,97,0.13,RA,,1.50,7.0,WeatherDisplay:10.37,2013-05-04 22:56:00,
2013-05-04 19:01:00,51.0,50.2,29.94,ESE,107,10.4,10.4,97,0.13,RA,,1.52,9.0,WeatherDisplay:10.37,2013-05-04 23:01:00,
2013-05-04 19:06:00,51.0,50.2,29.93,East,81,11.5,11.5,97,0.15,RA,,1.55,16.0,WeatherDisplay:10.37,2013-05-04 23:06:00,
2013-05-04 19:11:00,51.0,50.2,29.93,East,86,11.5,11.5,97,0.17,RA,,1.57,21.0,WeatherDisplay:10.37,2013-05-04 23:11:00,
2013-05-04 19:16:00,51.0,50.2,29.93,East,96,8.0,8.0,97,0.16,RA,,1.59,21.0,WeatherDisplay:10.37,2013-05-04 23:16:00,
2013-05-04 19:21:00,51.0,50.2,29.93,East,93,9.2,9.2,97,0.16,RA,,1.60,14.0,WeatherDisplay:10.37,2013-05-04 23:21:00,
2013-05-04 19:26:00,51.1,50.3,29.93,ENE,63,11.5,11.5,97,0.17,RA,,1.61,7.0,WeatherDisplay:10.37,2013-05-04 23:26:00,
2013-05-04 19:31:00,51.1,50.6,29.93,NE,42,12.7,12.7,98,0.18,RA,,1.63,14.0,WeatherDisplay:10.37,2013-05-04 23:31:00,
2013-05-04 19:36:00,51.2,50.7,29.92,ESE,116,6.9,6.9,98,0.18,RA,,1.63,9.0,WeatherDisplay:10.37,2013-05-04 23:36:00,
2013-05-04 19:41:00,51.2,50.7,29.92,ENE,75,11.5,11.5,98,0.18,RA,,1.66,7.0,WeatherDisplay:10.37,2013-05-04 23:41:00,
2013-05-04 19:46:00,51.2,50.7,29.92,ENE,70,12.7,12.7,98,0.18,RA,,1.66,5.0,WeatherDisplay:10.37,2013-05-04 23:46:00,
2013-05-04 19:51:00,51.3,50.8,29.91,East,87,5.8,5.8,98,0.17,RA,,1.66,5.0,WeatherDisplay:10.37,2013-05-04 23:51:00,
2013-05-04 19:56:00,51.3,50.8,29.92,ESE,105,11.5,11.5,98,0.16,CLR,,1.66,7.0,WeatherDisplay:10.37,2013-05-04 23:56:00,
2013-05-04 20:01:00,51.3,50.8,29.92,East,81,9.2,9.2,98,0.15,RA,,1.68,0.0,WeatherDisplay:10.37,2013-05-05 00:01:00,
2013-05-04 20:06:00,51.4,50.9,29.92,East,92,10.0,10.0,98,0.15,RA,,1.69,5.0,WeatherDisplay:10.37,2013-05-05 00:06:00,
2013-05-04 20:11:00,51.4,50.9,29.92,ENE,65,5.8,6.7,98,0.13,RA,,1.71,5.0,WeatherDisplay:10.37,2013-05-05 00:11:00,
2013-05-04 20:16:00,51.4,50.9,29.92,ENE,74,13.8,13.8,98,0.13,RA,,1.72,0.0,WeatherDisplay:10.37,2013-05-05 00:16:00,
2013-05-04 20:21:00,51.4,50.6,29.91,ESE,111,17.3,17.3,97,0.13,RA,,1.73,0.0,WeatherDisplay:10.37,2013-05-05 00:21:00,
2013-05-04 20:26:00,51.4,50.6,29.91,ESE,103,10.4,10.4,97,0.13,RA,,1.74,0.0,WeatherDisplay:10.37,2013-05-05 00:26:00,
2013-05-04 20:31:00,51.4,50.6,29.91,ENE,61,15.0,15.0,97,0.12,RA,,1.75,0.0,WeatherDisplay:10.37,2013-05-05 00:31:00,
2013-05-04 20:36:00,51.5,50.7,29.91,ESE,104,12.7,12.7,97,0.12,RA,,1.75,0.0,WeatherDisplay:10.37,2013-05-05 00:36:00,
2013-05-04 20:41:00,51.5,50.7,29.92,ENE,69,18.4,18.4,97,0.12,RA,,1.78,0.0,WeatherDisplay:10.37,2013-05-05 00:41:00,
2013-05-04 20:46:00,51.5,50.7,29.92,ESE,102,11.5,11.5,97,0.12,RA,,1.78,0.0,WeatherDisplay:10.37,2013-05-05 00:46:00,
2013-05-04 20:51:00,51.5,50.7,29.92,ENE,71,16.1,16.1,97,0.12,RA,,1.79,0.0,WeatherDisplay:10.37,2013-05-05 00:51:00,
2013-05-04 20:56:00,51.5,50.7,29.93,East,82,16.1,16.1,97,0.15,RA,,1.80,0.0,WeatherDisplay:10.37,2013-05-05 00:56:00,
2013-05-04 21:01:00,51.5,50.7,29.92,ESE,114,18.4,18.4,97,0.13,RA,,1.81,0.0,WeatherDisplay:10.37,2013-05-05 01:01:00,
2013-05-04 21:06:00,51.5,50.7,29.92,ENE,75,12.7,12.7,97,0.13,RA,,1.83,0.0,WeatherDisplay:10.37,2013-05-05 01:06:00,
2013-05-04 21:11:00,51.5,51.0,29.91,ENE,78,15.0,15.0,98,0.15,RA,,1.85,0.0,WeatherDisplay:10.37,2013-05-05 01:11:00,
2013-05-04 21:16:00,51.5,51.0,29.90,ENE,78,19.6,19.6,98,0.16,RA,,1.88,0.0,WeatherDisplay:10.37,2013-05-05 01:16:00,
2013-05-04 21:21:00,51.5,51.0,29.91,ENE,74,12.7,12.7,98,0.15,RA,,1.88,0.0,WeatherDisplay:10.37,2013-05-05 01:21:00,
2013-05-04 21:26:00,51.5,51.0,29.91,NE,45,13.8,13.8,98,0.15,RA,,1.89,0.0,WeatherDisplay:10.37,2013-05-05 01:26:00,
2013-05-04 21:31:00,51.6,51.1,29.92,SE,136,13.8,13.8,98,0.13,RA,,1.89,0.0,WeatherDisplay:10.37,2013-05-05 01:31:00,
2013-05-04 21:36:00,51.6,51.1,29.92,East,92,17.3,17.3,98,0.15,RA,,1.90,0.0,WeatherDisplay:10.37,2013-05-05 01:36:00,
2013-05-04 21:41:00,51.6,51.1,29.91,East,90,16.1,16.1,98,0.13,RA,,1.92,0.0,WeatherDisplay:10.37,2013-05-05 01:41:00,
2013-05-04 21:46:00,51.7,51.2,29.91,ENE,76,11.5,11.5,98,0.15,RA,,1.92,0.0,WeatherDisplay:10.37,2013-05-05 01:46:00,
2013-05-04 21:51:00,51.6,51.1,29.92,ESE,119,19.6,19.6,98,0.15,RA,,1.94,0.0,WeatherDisplay:10.37,2013-05-05 01:51:00,
2013-05-04 21:56:00,51.7,51.2,29.92,SE,136,4.6,4.6,98,0.13,RA,,1.94,0.0,WeatherDisplay:10.37,2013-05-05 01:56:00,
2013-05-04 22:01:00,51.7,51.2,29.92,East,92,9.2,9.2,98,0.13,RA,,1.95,0.0,WeatherDisplay:10.37,2013-05-05 02:01:00,
2013-05-04 22:06:00,51.7,51.2,29.93,SE,140,13.8,13.8,98,0.13,RA,,1.96,0.0,WeatherDisplay:10.37,2013-05-05 02:06:00,
2013-05-04 22:11:00,51.7,51.2,29.93,ESE,121,10.4,10.4,98,0.13,RA,,1.98,0.0,WeatherDisplay:10.37,2013-05-05 02:11:00,
2013-05-04 22:16:00,51.7,51.2,29.92,ENE,69,15.0,15.0,98,0.12,RA,,2.00,0.0,WeatherDisplay:10.37,2013-05-05 02:16:00,
2013-05-04 22:22:00,51.7,51.2,29.92,ESE,109,11.5,11.5,98,0.12,RA,,2.00,0.0,WeatherDisplay:10.37,2013-05-05 02:22:00,
2013-05-04 22:27:00,51.8,51.3,29.92,ESE,118,13.8,13.8,98,0.11,CLR,,2.01,0.0,WeatherDisplay:10.37,2013-05-05 02:27:00,
2013-05-04 22:32:00,51.8,51.3,29.93,East,98,9.2,9.2,98,0.12,RA,,2.01,0.0,WeatherDisplay:10.37,2013-05-05 02:32:00,
2013-05-04 22:37:00,51.8,51.3,29.92,SE,128,15.0,15.0,98,0.12,RA,,2.02,0.0,WeatherDisplay:10.37,2013-05-05 02:37:00,
2013-05-04 22:42:00,51.8,51.3,29.92,North,5,17.3,17.3,98,0.12,RA,,2.04,0.0,WeatherDisplay:10.37,2013-05-05 02:42:00,
2013-05-04 22:47:00,51.8,51.3,29.92,East,90,11.5,11.5,98,0.12,RA,,2.04,0.0,WeatherDisplay:10.37,2013-05-05 02:47:00,
2013-05-04 22:52:00,51.8,51.3,29.92,East,88,11.5,11.5,98,0.13,RA,,2.07,0.0,WeatherDisplay:10.37,2013-05-05 02:52:00,
2013-05-04 22:57:00,51.8,51.3,29.92,ESE,110,10.4,10.4,98,0.13,RA,,2.07,0.0,WeatherDisplay:10.37,2013-05-05 02:57:00,
2013-05-04 23:02:00,51.8,51.0,29.91,SSE,154,15.0,15.0,97,0.13,RA,,2.08,0.0,WeatherDisplay:10.37,2013-05-05 03:02:00,
2013-05-04 23:07:00,51.9,51.1,29.92,ENE,76,16.1,16.1,97,0.12,RA,,2.09,0.0,WeatherDisplay:10.37,2013-05-05 03:07:00,
2013-05-04 23:12:00,51.9,51.1,29.91,ESE,106,11.5,11.5,97,0.12,RA,,2.11,0.0,WeatherDisplay:10.37,2013-05-05 03:12:00,
2013-05-04 23:17:00,51.9,51.1,29.92,ESE,108,11.5,11.5,97,0.13,RA,,2.13,0.0,WeatherDisplay:10.37,2013-05-05 03:17:00,
2013-05-04 23:22:00,51.9,51.1,29.92,ENE,57,10.4,10.4,97,0.15,RA,,2.15,0.0,WeatherDisplay:10.37,2013-05-05 03:22:00,
2013-05-04 23:27:00,51.9,51.1,29.92,East,92,9.2,9.2,97,0.16,RA,,2.15,0.0,WeatherDisplay:10.37,2013-05-05 03:27:00,
2013-05-04 23:32:00,51.9,51.1,29.91,ESE,112,15.0,15.0,97,0.16,RA,,2.17,0.0,WeatherDisplay:10.37,2013-05-05 03:32:00,
2013-05-04 23:37:00,51.9,51.1,29.91,ENE,76,11.0,11.0,97,0.16,RA,,2.18,0.0,WeatherDisplay:10.37,2013-05-05 03:37:00,
2013-05-04 23:42:00,52.0,51.2,29.90,ENE,72,20.7,20.7,97,0.16,RA,,2.19,0.0,WeatherDisplay:10.37,2013-05-05 03:42:00,
2013-05-04 23:47:00,51.9,51.1,29.90,ESE,102,9.2,9.2,97,0.16,RA,,2.20,0.0,WeatherDisplay:10.37,2013-05-05 03:47:00,
2013-05-04 23:52:00,52.0,51.2,29.90,East,92,15.0,15.0,97,0.13,RA,,2.20,0.0,WeatherDisplay:10.37,2013-05-05 03:52:00,
2013-05-04 23:57:00,52.0,51.5,29.90,East,97,10.4,10.4,98,0.15,RA,,2.21,0.0,WeatherDisplay:10.37,2013-05-05 03:57:00,